sensor_id;sensor_type;location;lat;lon;timestamp;P1;durP1;ratioP1;P2;durP2;ratioP2
25854;SDS011;13680;49.936;11.344;2024-03-08T00:01:05;39.83;;;20.45;;
25854;SDS011;13680;49.936;11.344;2024-03-08T00:03:31;40.90;;;21.02;;
25854;SDS011;13680;49.936;11.344;2024-03-08T00:05:57;44.05;;;20.20;;
25854;SDS011;13680;49.936;11.344;2024-03-08T00:08:23;41.88;;;21.58;;
25854;SDS011;13680;49.936;11.344;2024-03-08T00:10:48;42.95;;;21.25;;
25854;SDS011;13680;49.936;11.344;2024-03-08T00:13:14;41.55;;;20.58;;
25854;SDS011;13680;49.936;11.344;2024-03-08T00:15:39;38.47;;;20.38;;
25854;SDS011;13680;49.936;11.344;2024-03-08T00:18:07;46.30;;;21.30;;
25854;SDS011;13680;49.936;11.344;2024-03-08T00:20:32;44.08;;;21.23;;
25854;SDS011;13680;49.936;11.344;2024-03-08T00:22:58;44.50;;;21.30;;
25854;SDS011;13680;49.936;11.344;2024-03-08T00:25:23;39.03;;;21.33;;
25854;SDS011;13680;49.936;11.344;2024-03-08T00:27:49;42.13;;;20.98;;
25854;SDS011;13680;49.936;11.344;2024-03-08T00:30:14;38.90;;;20.17;;
25854;SDS011;13680;49.936;11.344;2024-03-08T00:32:39;44.25;;;22.40;;
25854;SDS011;13680;49.936;11.344;2024-03-08T00:35:05;42.22;;;21.00;;
25854;SDS011;13680;49.936;11.344;2024-03-08T00:37:32;45.28;;;22.58;;
25854;SDS011;13680;49.936;11.344;2024-03-08T00:39:59;46.60;;;22.45;;
25854;SDS011;13680;49.936;11.344;2024-03-08T00:42:24;46.78;;;22.27;;
25854;SDS011;13680;49.936;11.344;2024-03-08T00:44:50;46.08;;;22.35;;
25854;SDS011;13680;49.936;11.344;2024-03-08T00:47:16;43.78;;;21.00;;
25854;SDS011;13680;49.936;11.344;2024-03-08T00:49:41;40.38;;;21.45;;
25854;SDS011;13680;49.936;11.344;2024-03-08T00:52:07;42.63;;;21.77;;
25854;SDS011;13680;49.936;11.344;2024-03-08T00:54:33;47.25;;;22.70;;
25854;SDS011;13680;49.936;11.344;2024-03-08T00:57:01;45.30;;;22.13;;
25854;SDS011;13680;49.936;11.344;2024-03-08T00:59:28;41.85;;;20.88;;
25854;SDS011;13680;49.936;11.344;2024-03-08T01:01:53;45.90;;;22.42;;
25854;SDS011;13680;49.936;11.344;2024-03-08T01:04:19;45.50;;;22.55;;
25854;SDS011;13680;49.936;11.344;2024-03-08T01:06:46;43.92;;;23.25;;
25854;SDS011;13680;49.936;11.344;2024-03-08T01:09:12;41.15;;;21.98;;
25854;SDS011;13680;49.936;11.344;2024-03-08T01:11:37;42.55;;;21.50;;
25854;SDS011;13680;49.936;11.344;2024-03-08T01:14:03;41.58;;;20.52;;
25854;SDS011;13680;49.936;11.344;2024-03-08T01:16:28;43.33;;;21.80;;
25854;SDS011;13680;49.936;11.344;2024-03-08T01:18:53;44.20;;;21.67;;
25854;SDS011;13680;49.936;11.344;2024-03-08T01:21:19;42.42;;;21.20;;
25854;SDS011;13680;49.936;11.344;2024-03-08T01:23:44;39.80;;;21.20;;
25854;SDS011;13680;49.936;11.344;2024-03-08T01:26:09;45.03;;;23.60;;
25854;SDS011;13680;49.936;11.344;2024-03-08T01:28:35;45.42;;;22.17;;
25854;SDS011;13680;49.936;11.344;2024-03-08T01:31:00;40.55;;;21.60;;
25854;SDS011;13680;49.936;11.344;2024-03-08T01:33:26;47.53;;;21.48;;
25854;SDS011;13680;49.936;11.344;2024-03-08T01:35:52;45.20;;;22.88;;
25854;SDS011;13680;49.936;11.344;2024-03-08T01:38:18;44.55;;;22.58;;
25854;SDS011;13680;49.936;11.344;2024-03-08T01:40:46;43.38;;;22.85;;
25854;SDS011;13680;49.936;11.344;2024-03-08T01:43:18;49.13;;;22.73;;
25854;SDS011;13680;49.936;11.344;2024-03-08T01:45:51;44.92;;;22.42;;
25854;SDS011;13680;49.936;11.344;2024-03-08T01:48:17;45.72;;;22.27;;
25854;SDS011;13680;49.936;11.344;2024-03-08T01:50:43;45.90;;;23.15;;
25854;SDS011;13680;49.936;11.344;2024-03-08T01:53:09;44.70;;;23.02;;
25854;SDS011;13680;49.936;11.344;2024-03-08T01:55:36;49.78;;;23.70;;
25854;SDS011;13680;49.936;11.344;2024-03-08T01:58:03;43.92;;;22.40;;
25854;SDS011;13680;49.936;11.344;2024-03-08T02:00:30;46.35;;;22.73;;
25854;SDS011;13680;49.936;11.344;2024-03-08T02:02:57;52.47;;;22.02;;
25854;SDS011;13680;49.936;11.344;2024-03-08T02:05:23;43.85;;;21.90;;
25854;SDS011;13680;49.936;11.344;2024-03-08T02:07:49;44.80;;;22.48;;
25854;SDS011;13680;49.936;11.344;2024-03-08T02:10:14;44.47;;;22.92;;
25854;SDS011;13680;49.936;11.344;2024-03-08T02:12:40;47.88;;;24.38;;
25854;SDS011;13680;49.936;11.344;2024-03-08T02:15:06;41.70;;;20.85;;
25854;SDS011;13680;49.936;11.344;2024-03-08T02:17:32;45.33;;;21.92;;
25854;SDS011;13680;49.936;11.344;2024-03-08T02:19:59;46.65;;;22.25;;
25854;SDS011;13680;49.936;11.344;2024-03-08T02:22:26;45.17;;;22.80;;
25854;SDS011;13680;49.936;11.344;2024-03-08T02:24:53;44.33;;;22.35;;
25854;SDS011;13680;49.936;11.344;2024-03-08T02:27:23;46.92;;;22.85;;
25854;SDS011;13680;49.936;11.344;2024-03-08T02:29:50;48.83;;;23.17;;
25854;SDS011;13680;49.936;11.344;2024-03-08T02:32:21;48.17;;;23.35;;
25854;SDS011;13680;49.936;11.344;2024-03-08T02:34:47;47.33;;;24.02;;
25854;SDS011;13680;49.936;11.344;2024-03-08T02:37:12;49.28;;;24.75;;
25854;SDS011;13680;49.936;11.344;2024-03-08T02:39:38;41.97;;;22.48;;
25854;SDS011;13680;49.936;11.344;2024-03-08T02:42:03;45.90;;;23.08;;
25854;SDS011;13680;49.936;11.344;2024-03-08T02:44:29;43.85;;;22.35;;
25854;SDS011;13680;49.936;11.344;2024-03-08T02:46:54;46.47;;;23.83;;
25854;SDS011;13680;49.936;11.344;2024-03-08T02:49:20;49.58;;;23.52;;
25854;SDS011;13680;49.936;11.344;2024-03-08T02:51:46;48.58;;;24.10;;
25854;SDS011;13680;49.936;11.344;2024-03-08T02:54:11;43.05;;;22.08;;
25854;SDS011;13680;49.936;11.344;2024-03-08T02:56:37;45.15;;;22.63;;
25854;SDS011;13680;49.936;11.344;2024-03-08T02:59:02;47.72;;;23.58;;
25854;SDS011;13680;49.936;11.344;2024-03-08T03:01:28;42.15;;;21.67;;
25854;SDS011;13680;49.936;11.344;2024-03-08T03:03:53;42.70;;;21.60;;
25854;SDS011;13680;49.936;11.344;2024-03-08T03:06:19;46.50;;;22.48;;
25854;SDS011;13680;49.936;11.344;2024-03-08T03:08:46;42.10;;;21.13;;
25854;SDS011;13680;49.936;11.344;2024-03-08T03:11:11;43.80;;;21.63;;
25854;SDS011;13680;49.936;11.344;2024-03-08T03:13:38;48.55;;;22.10;;
25854;SDS011;13680;49.936;11.344;2024-03-08T03:16:04;40.05;;;21.48;;
25854;SDS011;13680;49.936;11.344;2024-03-08T03:18:30;43.42;;;22.23;;
25854;SDS011;13680;49.936;11.344;2024-03-08T03:20:58;45.33;;;21.67;;
25854;SDS011;13680;49.936;11.344;2024-03-08T03:23:23;43.10;;;21.52;;
25854;SDS011;13680;49.936;11.344;2024-03-08T03:25:51;43.67;;;21.77;;
25854;SDS011;13680;49.936;11.344;2024-03-08T03:28:17;42.97;;;22.25;;
25854;SDS011;13680;49.936;11.344;2024-03-08T03:30:46;45.67;;;21.98;;
25854;SDS011;13680;49.936;11.344;2024-03-08T03:33:12;41.40;;;21.70;;
25854;SDS011;13680;49.936;11.344;2024-03-08T03:35:39;41.55;;;20.80;;
25854;SDS011;13680;49.936;11.344;2024-03-08T03:38:06;43.75;;;21.52;;
25854;SDS011;13680;49.936;11.344;2024-03-08T03:40:35;41.45;;;21.45;;
25854;SDS011;13680;49.936;11.344;2024-03-08T03:43:02;44.20;;;22.70;;
25854;SDS011;13680;49.936;11.344;2024-03-08T03:45:30;47.00;;;23.13;;
25854;SDS011;13680;49.936;11.344;2024-03-08T03:48:01;47.25;;;23.00;;
25854;SDS011;13680;49.936;11.344;2024-03-08T03:50:29;40.75;;;20.48;;
25854;SDS011;13680;49.936;11.344;2024-03-08T03:52:55;44.33;;;21.83;;
25854;SDS011;13680;49.936;11.344;2024-03-08T03:55:20;43.53;;;22.08;;
25854;SDS011;13680;49.936;11.344;2024-03-08T03:57:47;45.92;;;22.25;;
25854;SDS011;13680;49.936;11.344;2024-03-08T04:00:12;48.50;;;23.30;;
25854;SDS011;13680;49.936;11.344;2024-03-08T04:02:38;45.95;;;22.20;;
25854;SDS011;13680;49.936;11.344;2024-03-08T04:05:05;45.25;;;23.00;;
25854;SDS011;13680;49.936;11.344;2024-03-08T04:07:31;48.80;;;24.60;;
25854;SDS011;13680;49.936;11.344;2024-03-08T04:09:57;58.30;;;24.80;;
25854;SDS011;13680;49.936;11.344;2024-03-08T04:12:22;49.15;;;22.92;;
25854;SDS011;13680;49.936;11.344;2024-03-08T04:14:48;49.92;;;22.85;;
25854;SDS011;13680;49.936;11.344;2024-03-08T04:17:13;51.35;;;24.05;;
25854;SDS011;13680;49.936;11.344;2024-03-08T04:19:38;47.42;;;22.98;;
25854;SDS011;13680;49.936;11.344;2024-03-08T04:22:05;51.42;;;23.33;;
25854;SDS011;13680;49.936;11.344;2024-03-08T04:24:32;51.05;;;24.52;;
25854;SDS011;13680;49.936;11.344;2024-03-08T04:26:58;50.97;;;24.77;;
25854;SDS011;13680;49.936;11.344;2024-03-08T04:29:24;50.08;;;24.13;;
25854;SDS011;13680;49.936;11.344;2024-03-08T04:31:49;54.83;;;24.42;;
25854;SDS011;13680;49.936;11.344;2024-03-08T04:34:19;47.05;;;23.25;;
25854;SDS011;13680;49.936;11.344;2024-03-08T04:36:45;49.55;;;24.52;;
25854;SDS011;13680;49.936;11.344;2024-03-08T04:39:10;60.92;;;24.60;;
25854;SDS011;13680;49.936;11.344;2024-03-08T04:41:38;55.42;;;24.92;;
25854;SDS011;13680;49.936;11.344;2024-03-08T04:44:04;50.92;;;24.45;;
25854;SDS011;13680;49.936;11.344;2024-03-08T04:46:29;43.17;;;23.25;;
25854;SDS011;13680;49.936;11.344;2024-03-08T04:48:55;50.63;;;24.55;;
25854;SDS011;13680;49.936;11.344;2024-03-08T04:51:21;50.15;;;25.13;;
25854;SDS011;13680;49.936;11.344;2024-03-08T04:53:47;46.63;;;23.02;;
25854;SDS011;13680;49.936;11.344;2024-03-08T04:56:12;50.72;;;24.50;;
25854;SDS011;13680;49.936;11.344;2024-03-08T04:58:38;48.03;;;23.23;;
25854;SDS011;13680;49.936;11.344;2024-03-08T05:01:03;49.92;;;23.20;;
25854;SDS011;13680;49.936;11.344;2024-03-08T05:03:28;52.00;;;23.98;;
25854;SDS011;13680;49.936;11.344;2024-03-08T05:05:55;54.67;;;24.10;;
25854;SDS011;13680;49.936;11.344;2024-03-08T05:08:21;55.72;;;23.50;;
25854;SDS011;13680;49.936;11.344;2024-03-08T05:10:46;52.08;;;23.85;;
25854;SDS011;13680;49.936;11.344;2024-03-08T05:13:12;56.75;;;25.00;;
25854;SDS011;13680;49.936;11.344;2024-03-08T05:15:38;54.20;;;24.40;;
25854;SDS011;13680;49.936;11.344;2024-03-08T05:18:04;47.10;;;23.75;;
25854;SDS011;13680;49.936;11.344;2024-03-08T05:20:30;53.15;;;25.15;;
25854;SDS011;13680;49.936;11.344;2024-03-08T05:22:55;49.28;;;23.70;;
25854;SDS011;13680;49.936;11.344;2024-03-08T05:25:22;54.72;;;24.85;;
25854;SDS011;13680;49.936;11.344;2024-03-08T05:27:47;55.10;;;26.08;;
25854;SDS011;13680;49.936;11.344;2024-03-08T05:30:13;55.70;;;24.83;;
25854;SDS011;13680;49.936;11.344;2024-03-08T05:32:40;49.00;;;23.42;;
25854;SDS011;13680;49.936;11.344;2024-03-08T05:35:10;53.83;;;25.38;;
25854;SDS011;13680;49.936;11.344;2024-03-08T05:37:37;48.90;;;22.50;;
25854;SDS011;13680;49.936;11.344;2024-03-08T05:40:02;47.92;;;23.25;;
25854;SDS011;13680;49.936;11.344;2024-03-08T05:42:33;55.10;;;24.40;;
25854;SDS011;13680;49.936;11.344;2024-03-08T05:44:59;55.58;;;26.35;;
25854;SDS011;13680;49.936;11.344;2024-03-08T05:47:24;53.63;;;24.33;;
25854;SDS011;13680;49.936;11.344;2024-03-08T05:49:49;59.50;;;24.75;;
25854;SDS011;13680;49.936;11.344;2024-03-08T05:52:15;61.08;;;26.80;;
25854;SDS011;13680;49.936;11.344;2024-03-08T05:54:40;61.95;;;24.73;;
25854;SDS011;13680;49.936;11.344;2024-03-08T05:57:06;60.75;;;27.02;;
25854;SDS011;13680;49.936;11.344;2024-03-08T05:59:31;58.97;;;25.00;;
25854;SDS011;13680;49.936;11.344;2024-03-08T06:01:56;57.13;;;25.85;;
25854;SDS011;13680;49.936;11.344;2024-03-08T06:04:22;59.10;;;25.50;;
25854;SDS011;13680;49.936;11.344;2024-03-08T06:06:48;53.17;;;24.70;;
25854;SDS011;13680;49.936;11.344;2024-03-08T06:09:13;57.47;;;26.35;;
25854;SDS011;13680;49.936;11.344;2024-03-08T06:11:42;57.42;;;25.38;;
25854;SDS011;13680;49.936;11.344;2024-03-08T06:14:08;52.50;;;25.63;;
25854;SDS011;13680;49.936;11.344;2024-03-08T06:16:33;59.28;;;25.27;;
25854;SDS011;13680;49.936;11.344;2024-03-08T06:19:00;57.33;;;27.20;;
25854;SDS011;13680;49.936;11.344;2024-03-08T06:21:27;56.42;;;24.95;;
25854;SDS011;13680;49.936;11.344;2024-03-08T06:23:53;56.53;;;25.27;;
25854;SDS011;13680;49.936;11.344;2024-03-08T06:26:25;54.90;;;26.30;;
25854;SDS011;13680;49.936;11.344;2024-03-08T06:28:53;51.83;;;25.17;;
25854;SDS011;13680;49.936;11.344;2024-03-08T06:31:18;53.25;;;25.48;;
25854;SDS011;13680;49.936;11.344;2024-03-08T06:33:45;55.65;;;24.88;;
25854;SDS011;13680;49.936;11.344;2024-03-08T06:36:10;58.35;;;25.27;;
25854;SDS011;13680;49.936;11.344;2024-03-08T06:38:37;57.40;;;25.20;;
25854;SDS011;13680;49.936;11.344;2024-03-08T06:41:08;52.78;;;24.00;;
25854;SDS011;13680;49.936;11.344;2024-03-08T06:43:34;46.75;;;22.75;;
25854;SDS011;13680;49.936;11.344;2024-03-08T06:45:59;55.78;;;24.88;;
25854;SDS011;13680;49.936;11.344;2024-03-08T06:48:25;45.40;;;23.58;;
25854;SDS011;13680;49.936;11.344;2024-03-08T06:50:50;51.10;;;23.35;;
25854;SDS011;13680;49.936;11.344;2024-03-08T06:53:15;56.53;;;25.42;;
25854;SDS011;13680;49.936;11.344;2024-03-08T06:55:44;50.17;;;24.33;;
25854;SDS011;13680;49.936;11.344;2024-03-08T06:58:09;51.25;;;23.90;;
25854;SDS011;13680;49.936;11.344;2024-03-08T07:00:35;53.50;;;25.95;;
25854;SDS011;13680;49.936;11.344;2024-03-08T07:03:01;56.85;;;24.40;;
25854;SDS011;13680;49.936;11.344;2024-03-08T07:05:27;53.55;;;24.55;;
25854;SDS011;13680;49.936;11.344;2024-03-08T07:07:53;53.45;;;25.33;;
25854;SDS011;13680;49.936;11.344;2024-03-08T07:10:19;54.08;;;23.88;;
25854;SDS011;13680;49.936;11.344;2024-03-08T07:12:51;54.08;;;24.02;;
25854;SDS011;13680;49.936;11.344;2024-03-08T07:15:18;54.35;;;25.55;;
25854;SDS011;13680;49.936;11.344;2024-03-08T07:17:44;49.92;;;25.20;;
25854;SDS011;13680;49.936;11.344;2024-03-08T07:20:11;51.88;;;23.83;;
25854;SDS011;13680;49.936;11.344;2024-03-08T07:22:38;48.53;;;23.42;;
25854;SDS011;13680;49.936;11.344;2024-03-08T07:25:07;53.60;;;24.73;;
25854;SDS011;13680;49.936;11.344;2024-03-08T07:27:33;51.25;;;24.88;;
25854;SDS011;13680;49.936;11.344;2024-03-08T07:30:02;48.17;;;23.70;;
25854;SDS011;13680;49.936;11.344;2024-03-08T07:32:28;51.60;;;23.52;;
25854;SDS011;13680;49.936;11.344;2024-03-08T07:34:57;52.35;;;25.38;;
25854;SDS011;13680;49.936;11.344;2024-03-08T07:37:23;49.03;;;24.13;;
25854;SDS011;13680;49.936;11.344;2024-03-08T07:39:49;51.80;;;25.35;;
25854;SDS011;13680;49.936;11.344;2024-03-08T07:42:14;50.40;;;24.73;;
25854;SDS011;13680;49.936;11.344;2024-03-08T07:44:41;49.97;;;24.60;;
25854;SDS011;13680;49.936;11.344;2024-03-08T07:47:06;48.10;;;24.60;;
25854;SDS011;13680;49.936;11.344;2024-03-08T07:49:34;55.13;;;25.88;;
25854;SDS011;13680;49.936;11.344;2024-03-08T07:52:00;59.88;;;25.85;;
25854;SDS011;13680;49.936;11.344;2024-03-08T07:54:25;52.78;;;24.75;;
25854;SDS011;13680;49.936;11.344;2024-03-08T07:56:51;55.55;;;25.70;;
25854;SDS011;13680;49.936;11.344;2024-03-08T07:59:17;46.90;;;23.05;;
25854;SDS011;13680;49.936;11.344;2024-03-08T08:01:42;51.30;;;24.90;;
25854;SDS011;13680;49.936;11.344;2024-03-08T08:04:09;47.58;;;23.80;;
25854;SDS011;13680;49.936;11.344;2024-03-08T08:06:37;51.75;;;24.38;;
25854;SDS011;13680;49.936;11.344;2024-03-08T08:09:08;46.55;;;23.30;;
25854;SDS011;13680;49.936;11.344;2024-03-08T08:11:41;48.85;;;23.50;;
25854;SDS011;13680;49.936;11.344;2024-03-08T08:14:09;49.50;;;23.50;;
25854;SDS011;13680;49.936;11.344;2024-03-08T08:16:35;50.95;;;24.50;;
25854;SDS011;13680;49.936;11.344;2024-03-08T08:19:06;49.55;;;23.58;;
25854;SDS011;13680;49.936;11.344;2024-03-08T08:21:35;48.70;;;22.42;;
25854;SDS011;13680;49.936;11.344;2024-03-08T08:24:02;45.20;;;22.77;;
25854;SDS011;13680;49.936;11.344;2024-03-08T08:26:30;51.53;;;23.80;;
25854;SDS011;13680;49.936;11.344;2024-03-08T08:28:55;52.00;;;24.30;;
25854;SDS011;13680;49.936;11.344;2024-03-08T08:31:21;50.13;;;23.75;;
25854;SDS011;13680;49.936;11.344;2024-03-08T08:33:46;50.67;;;24.00;;
25854;SDS011;13680;49.936;11.344;2024-03-08T08:36:13;49.03;;;23.83;;
25854;SDS011;13680;49.936;11.344;2024-03-08T08:38:39;49.00;;;24.15;;
25854;SDS011;13680;49.936;11.344;2024-03-08T08:41:05;45.83;;;23.38;;
25854;SDS011;13680;49.936;11.344;2024-03-08T08:43:31;48.03;;;23.38;;
25854;SDS011;13680;49.936;11.344;2024-03-08T08:45:58;53.33;;;24.13;;
25854;SDS011;13680;49.936;11.344;2024-03-08T08:48:23;50.92;;;24.95;;
25854;SDS011;13680;49.936;11.344;2024-03-08T08:50:50;48.63;;;23.05;;
25854;SDS011;13680;49.936;11.344;2024-03-08T08:53:17;50.65;;;24.05;;
25854;SDS011;13680;49.936;11.344;2024-03-08T08:55:43;50.55;;;23.75;;
25854;SDS011;13680;49.936;11.344;2024-03-08T08:58:10;52.50;;;24.67;;
25854;SDS011;13680;49.936;11.344;2024-03-08T09:00:36;53.53;;;26.58;;
25854;SDS011;13680;49.936;11.344;2024-03-08T09:03:01;48.88;;;24.27;;
25854;SDS011;13680;49.936;11.344;2024-03-08T09:05:27;46.30;;;23.98;;
25854;SDS011;13680;49.936;11.344;2024-03-08T09:07:52;50.95;;;23.77;;
25854;SDS011;13680;49.936;11.344;2024-03-08T09:10:18;49.35;;;23.67;;
25854;SDS011;13680;49.936;11.344;2024-03-08T09:12:43;47.13;;;23.05;;
25854;SDS011;13680;49.936;11.344;2024-03-08T09:15:09;45.47;;;22.58;;
25854;SDS011;13680;49.936;11.344;2024-03-08T09:17:36;46.38;;;22.88;;
25854;SDS011;13680;49.936;11.344;2024-03-08T09:20:05;49.25;;;23.67;;
25854;SDS011;13680;49.936;11.344;2024-03-08T09:22:31;45.17;;;23.15;;
25854;SDS011;13680;49.936;11.344;2024-03-08T09:24:57;47.08;;;22.73;;
25854;SDS011;13680;49.936;11.344;2024-03-08T09:27:22;46.15;;;23.27;;
25854;SDS011;13680;49.936;11.344;2024-03-08T09:29:48;46.85;;;23.50;;
25854;SDS011;13680;49.936;11.344;2024-03-08T09:32:13;50.70;;;24.15;;
25854;SDS011;13680;49.936;11.344;2024-03-08T09:34:39;44.20;;;22.48;;
25854;SDS011;13680;49.936;11.344;2024-03-08T09:37:05;45.67;;;22.30;;
25854;SDS011;13680;49.936;11.344;2024-03-08T09:39:30;42.10;;;22.67;;
25854;SDS011;13680;49.936;11.344;2024-03-08T09:41:56;42.67;;;22.63;;
25854;SDS011;13680;49.936;11.344;2024-03-08T09:44:22;42.78;;;23.10;;
25854;SDS011;13680;49.936;11.344;2024-03-08T09:46:48;44.33;;;24.23;;
25854;SDS011;13680;49.936;11.344;2024-03-08T09:49:16;40.83;;;21.65;;
25854;SDS011;13680;49.936;11.344;2024-03-08T09:51:41;44.78;;;23.23;;
25854;SDS011;13680;49.936;11.344;2024-03-08T09:54:07;44.05;;;22.63;;
25854;SDS011;13680;49.936;11.344;2024-03-08T09:56:33;47.90;;;26.35;;
25854;SDS011;13680;49.936;11.344;2024-03-08T09:59:00;38.60;;;21.25;;
25854;SDS011;13680;49.936;11.344;2024-03-08T10:01:44;38.88;;;22.65;;
25854;SDS011;13680;49.936;11.344;2024-03-08T10:04:10;37.88;;;20.77;;
25854;SDS011;13680;49.936;11.344;2024-03-08T10:06:37;38.25;;;21.50;;
25854;SDS011;13680;49.936;11.344;2024-03-08T10:09:02;40.35;;;22.08;;
25854;SDS011;13680;49.936;11.344;2024-03-08T10:11:27;41.42;;;21.35;;
25854;SDS011;13680;49.936;11.344;2024-03-08T10:13:53;39.28;;;21.95;;
25854;SDS011;13680;49.936;11.344;2024-03-08T10:16:19;37.60;;;21.15;;
25854;SDS011;13680;49.936;11.344;2024-03-08T10:18:45;39.47;;;21.35;;
25854;SDS011;13680;49.936;11.344;2024-03-08T10:21:11;37.72;;;20.50;;
25854;SDS011;13680;49.936;11.344;2024-03-08T10:23:37;38.17;;;21.08;;
25854;SDS011;13680;49.936;11.344;2024-03-08T10:26:09;35.65;;;20.30;;
25854;SDS011;13680;49.936;11.344;2024-03-08T10:28:35;39.15;;;20.88;;
25854;SDS011;13680;49.936;11.344;2024-03-08T10:31:01;33.22;;;19.00;;
25854;SDS011;13680;49.936;11.344;2024-03-08T10:33:27;37.67;;;20.73;;
25854;SDS011;13680;49.936;11.344;2024-03-08T10:35:52;35.38;;;20.27;;
25854;SDS011;13680;49.936;11.344;2024-03-08T10:38:20;36.83;;;20.88;;
25854;SDS011;13680;49.936;11.344;2024-03-08T10:40:47;37.70;;;20.95;;
25854;SDS011;13680;49.936;11.344;2024-03-08T10:43:22;33.30;;;19.15;;
25854;SDS011;13680;49.936;11.344;2024-03-08T10:45:50;38.65;;;19.98;;
25854;SDS011;13680;49.936;11.344;2024-03-08T10:48:32;38.03;;;21.33;;
25854;SDS011;13680;49.936;11.344;2024-03-08T10:51:06;34.72;;;19.80;;
25854;SDS011;13680;49.936;11.344;2024-03-08T10:53:36;33.13;;;18.83;;
25854;SDS011;13680;49.936;11.344;2024-03-08T10:56:04;37.30;;;19.13;;
25854;SDS011;13680;49.936;11.344;2024-03-08T10:58:30;33.55;;;19.25;;
25854;SDS011;13680;49.936;11.344;2024-03-08T11:00:57;36.40;;;20.10;;
25854;SDS011;13680;49.936;11.344;2024-03-08T11:08:41;33.00;;;17.58;;
25854;SDS011;13680;49.936;11.344;2024-03-08T11:11:23;30.58;;;18.75;;
25854;SDS011;13680;49.936;11.344;2024-03-08T11:13:56;30.30;;;17.08;;
25854;SDS011;13680;49.936;11.344;2024-03-08T11:18:55;28.08;;;17.45;;
25854;SDS011;13680;49.936;11.344;2024-03-08T11:21:29;33.08;;;18.15;;
25854;SDS011;13680;49.936;11.344;2024-03-08T11:24:05;30.95;;;17.55;;
25854;SDS011;13680;49.936;11.344;2024-03-08T11:26:33;31.30;;;18.35;;
25854;SDS011;13680;49.936;11.344;2024-03-08T11:32:08;32.88;;;17.48;;
25854;SDS011;13680;49.936;11.344;2024-03-08T11:34:41;28.38;;;17.38;;
25854;SDS011;13680;49.936;11.344;2024-03-08T11:37:12;32.67;;;17.52;;
25854;SDS011;13680;49.936;11.344;2024-03-08T11:42:18;28.65;;;17.27;;
25854;SDS011;13680;49.936;11.344;2024-03-08T11:44:47;27.42;;;16.70;;
25854;SDS011;13680;49.936;11.344;2024-03-08T11:47:13;28.67;;;16.45;;
25854;SDS011;13680;49.936;11.344;2024-03-08T11:49:40;29.30;;;15.80;;
25854;SDS011;13680;49.936;11.344;2024-03-08T11:52:13;28.65;;;16.25;;
25854;SDS011;13680;49.936;11.344;2024-03-08T11:54:40;27.10;;;16.15;;
25854;SDS011;13680;49.936;11.344;2024-03-08T11:57:06;24.35;;;14.90;;
25854;SDS011;13680;49.936;11.344;2024-03-08T11:59:34;25.45;;;15.68;;
25854;SDS011;13680;49.936;11.344;2024-03-08T12:02:01;25.45;;;15.63;;
25854;SDS011;13680;49.936;11.344;2024-03-08T12:04:28;24.45;;;15.45;;
25854;SDS011;13680;49.936;11.344;2024-03-08T12:06:54;28.05;;;16.15;;
25854;SDS011;13680;49.936;11.344;2024-03-08T12:09:19;26.17;;;15.77;;
25854;SDS011;13680;49.936;11.344;2024-03-08T12:11:50;29.45;;;16.13;;
25854;SDS011;13680;49.936;11.344;2024-03-08T12:14:16;28.30;;;15.32;;
25854;SDS011;13680;49.936;11.344;2024-03-08T12:16:41;24.85;;;14.23;;
25854;SDS011;13680;49.936;11.344;2024-03-08T12:19:07;23.60;;;14.38;;
25854;SDS011;13680;49.936;11.344;2024-03-08T12:21:35;31.42;;;15.40;;
25854;SDS011;13680;49.936;11.344;2024-03-08T12:24:10;23.88;;;14.60;;
25854;SDS011;13680;49.936;11.344;2024-03-08T12:26:36;24.92;;;14.68;;
25854;SDS011;13680;49.936;11.344;2024-03-08T12:29:19;21.00;;;13.13;;
25854;SDS011;13680;49.936;11.344;2024-03-08T12:31:57;22.95;;;14.10;;
25854;SDS011;13680;49.936;11.344;2024-03-08T12:34:26;24.35;;;13.40;;
25854;SDS011;13680;49.936;11.344;2024-03-08T12:36:57;22.15;;;13.98;;
25854;SDS011;13680;49.936;11.344;2024-03-08T12:39:23;21.80;;;13.38;;
25854;SDS011;13680;49.936;11.344;2024-03-08T12:41:52;21.15;;;13.35;;
25854;SDS011;13680;49.936;11.344;2024-03-08T12:44:18;19.75;;;12.65;;
25854;SDS011;13680;49.936;11.344;2024-03-08T12:46:44;20.73;;;12.52;;
25854;SDS011;13680;49.936;11.344;2024-03-08T12:49:10;19.45;;;12.32;;
25854;SDS011;13680;49.936;11.344;2024-03-08T12:51:37;19.33;;;11.57;;
25854;SDS011;13680;49.936;11.344;2024-03-08T12:54:04;19.45;;;12.50;;
25854;SDS011;13680;49.936;11.344;2024-03-08T12:56:33;20.25;;;12.38;;
25854;SDS011;13680;49.936;11.344;2024-03-08T12:59:00;19.77;;;12.35;;
25854;SDS011;13680;49.936;11.344;2024-03-08T13:01:26;18.42;;;11.82;;
25854;SDS011;13680;49.936;11.344;2024-03-08T13:03:52;17.02;;;11.45;;
25854;SDS011;13680;49.936;11.344;2024-03-08T13:06:18;21.48;;;12.27;;
25854;SDS011;13680;49.936;11.344;2024-03-08T13:08:46;17.98;;;11.50;;
25854;SDS011;13680;49.936;11.344;2024-03-08T13:11:13;18.63;;;11.63;;
25854;SDS011;13680;49.936;11.344;2024-03-08T13:13:42;24.77;;;11.48;;
25854;SDS011;13680;49.936;11.344;2024-03-08T13:16:07;23.00;;;11.20;;
25854;SDS011;13680;49.936;11.344;2024-03-08T13:18:36;17.73;;;11.70;;
25854;SDS011;13680;49.936;11.344;2024-03-08T13:21:02;17.33;;;10.90;;
25854;SDS011;13680;49.936;11.344;2024-03-08T13:23:33;19.35;;;10.30;;
25854;SDS011;13680;49.936;11.344;2024-03-08T13:26:11;17.35;;;10.95;;
25854;SDS011;13680;49.936;11.344;2024-03-08T13:28:40;22.23;;;12.00;;
25854;SDS011;13680;49.936;11.344;2024-03-08T13:31:08;18.33;;;11.48;;
25854;SDS011;13680;49.936;11.344;2024-03-08T13:33:39;23.80;;;11.10;;
25854;SDS011;13680;49.936;11.344;2024-03-08T13:36:06;17.63;;;11.60;;
25854;SDS011;13680;49.936;11.344;2024-03-08T13:38:39;18.33;;;11.55;;
25854;SDS011;13680;49.936;11.344;2024-03-08T13:41:09;17.95;;;11.55;;
25854;SDS011;13680;49.936;11.344;2024-03-08T13:43:36;15.35;;;10.57;;
25854;SDS011;13680;49.936;11.344;2024-03-08T13:46:02;17.80;;;11.20;;
25854;SDS011;13680;49.936;11.344;2024-03-08T13:48:28;16.55;;;10.90;;
25854;SDS011;13680;49.936;11.344;2024-03-08T13:50:53;16.42;;;10.43;;
25854;SDS011;13680;49.936;11.344;2024-03-08T13:53:20;17.50;;;10.88;;
25854;SDS011;13680;49.936;11.344;2024-03-08T13:55:45;15.18;;;10.30;;
25854;SDS011;13680;49.936;11.344;2024-03-08T13:58:11;15.70;;;10.23;;
25854;SDS011;13680;49.936;11.344;2024-03-08T14:00:38;18.55;;;10.07;;
25854;SDS011;13680;49.936;11.344;2024-03-08T14:03:06;17.75;;;9.63;;
25854;SDS011;13680;49.936;11.344;2024-03-08T14:05:32;15.85;;;9.45;;
25854;SDS011;13680;49.936;11.344;2024-03-08T14:08:01;15.13;;;9.23;;
25854;SDS011;13680;49.936;11.344;2024-03-08T14:10:29;15.13;;;9.27;;
25854;SDS011;13680;49.936;11.344;2024-03-08T14:12:56;19.27;;;10.07;;
25854;SDS011;13680;49.936;11.344;2024-03-08T14:15:22;16.70;;;8.70;;
25854;SDS011;13680;49.936;11.344;2024-03-08T14:17:53;14.05;;;9.60;;
25854;SDS011;13680;49.936;11.344;2024-03-08T14:20:19;16.40;;;9.43;;